Time;durP1;ratioP1;P1;durP2;ratioP2;P2;SDS_P1;SDS_P2;PMS_P1;PMS_P2;Temp;Humidity;BMP_temperature;BMP_pressure;BME280_temperature;BME280_humidity;BME280_pressure;Samples;Min_cycle;Max_cycle;Signal;HPM_P1;HPM_P2
2023/07/05 00:01:47;;;;;;;0.50;0.50;;;;;;;;;;7403311;19;20184;-88
2023/07/05 00:04:14;;;;;;;0.55;0.55;;;;;;;;;;7400299;19;20646;-88
2023/07/05 00:06:41;;;;;;;0.75;0.75;;;;;;;;;;7398682;19;20147;-88
2023/07/05 00:09:07;;;;;;;0.40;0.40;;;;;;;;;;7403451;19;20528;-88
2023/07/05 00:11:34;;;;;;;0.30;0.30;;;;;;;;;;7402703;19;20124;-87
2023/07/05 00:14:01;;;;;;;0.60;0.55;;;;;;;;;;7403410;19;20200;-88
2023/07/05 00:16:27;;;;;;;0.30;0.30;;;;;;;;;;7401670;19;20224;-87
2023/07/05 00:18:56;;;;;;;0.32;0.32;;;;;;;;;;7396849;19;20171;-90
2023/07/05 00:21:24;;;;;;;0.40;0.40;;;;;;;;;;7403278;19;20161;-88
2023/07/05 00:23:50;;;;;;;0.85;0.55;;;;;;;;;;7399781;19;20474;-88
2023/07/05 00:26:17;;;;;;;0.60;0.60;;;;;;;;;;7401588;19;20166;-87
2023/07/05 00:28:44;;;;;;;0.43;0.43;;;;;;;;;;7402001;19;20137;-87
2023/07/05 00:31:10;;;;;;;0.38;0.38;;;;;;;;;;7405249;19;20157;-88
2023/07/05 00:33:37;;;;;;;0.50;0.50;;;;;;;;;;7402677;19;20149;-88
2023/07/05 00:36:04;;;;;;;0.43;0.43;;;;;;;;;;7403578;19;20762;-88
2023/07/05 00:38:30;;;;;;;0.30;0.30;;;;;;;;;;7401450;19;20141;-87
2023/07/05 00:40:57;;;;;;;0.40;0.40;;;;;;;;;;7401379;19;20619;-88
2023/07/05 00:43:24;;;;;;;0.30;0.30;;;;;;;;;;7397555;19;20169;-88
2023/07/05 00:45:59;;;;;;;0.55;0.55;;;;;;;;;;7397599;19;20168;-89
2023/07/05 00:48:42;;;;;;;0.32;0.32;;;;;;;;;;7399875;19;20125;-88
2023/07/05 00:51:43;;;;;;;0.57;0.57;;;;;;;;;;7398699;19;20356;-88
2023/07/05 00:54:10;;;;;;;0.77;0.77;;;;;;;;;;7397677;19;20143;-88
2023/07/05 00:56:44;;;;;;;0.40;0.40;;;;;;;;;;7395899;19;20168;-88
2023/07/05 00:59:12;;;;;;;0.68;0.68;;;;;;;;;;7398712;19;20132;-88
2023/07/05 01:01:39;;;;;;;0.30;0.30;;;;;;;;;;7398005;19;20141;-87
2023/07/05 01:04:25;;;;;;;0.40;0.40;;;;;;;;;;7397287;19;20149;-88
2023/07/05 01:06:52;;;;;;;0.50;0.50;;;;;;;;;;7396291;19;20180;-88
2023/07/05 01:09:19;;;;;;;0.30;0.30;;;;;;;;;;7397734;19;20133;-88
2023/07/05 01:11:54;;;;;;;0.40;0.40;;;;;;;;;;7398137;19;20145;-88
2023/07/05 01:14:31;;;;;;;0.40;0.40;;;;;;;;;;7397648;19;20140;-88
2023/07/05 01:17:12;;;;;;;0.70;0.60;;;;;;;;;;7397616;19;20144;-87
2023/07/05 01:20:04;;;;;;;0.90;0.47;;;;;;;;;;7399443;19;20168;-87
2023/07/05 01:22:53;;;;;;;0.30;0.30;;;;;;;;;;7398275;19;20143;-90
2023/07/05 01:25:57;;;;;;;0.40;0.40;;;;;;;;;;7399195;19;20145;-87
2023/07/05 01:28:37;;;;;;;0.35;0.35;;;;;;;;;;7402688;19;20129;-87
2023/07/05 01:31:05;;;;;;;0.50;0.50;;;;;;;;;;7398669;19;20125;-88
2023/07/05 01:33:41;;;;;;;0.50;0.50;;;;;;;;;;7400192;19;20436;-88
2023/07/05 01:36:07;;;;;;;0.40;0.40;;;;;;;;;;7399999;19;20200;-87
2023/07/05 01:38:34;;;;;;;0.40;0.40;;;;;;;;;;7398123;19;20475;-88
2023/07/05 01:41:04;;;;;;;0.30;0.30;;;;;;;;;;7396881;19;20129;-86
2023/07/05 01:43:32;;;;;;;0.73;0.73;;;;;;;;;;7397898;19;20147;-87
2023/07/05 01:46:14;;;;;;;0.40;0.40;;;;;;;;;;7398569;19;20155;-86
2023/07/05 01:48:53;;;;;;;0.38;0.38;;;;;;;;;;7396928;19;20208;-87
2023/07/05 01:51:49;;;;;;;0.47;0.47;;;;;;;;;;7397605;19;20915;-86
2023/07/05 01:54:23;;;;;;;0.30;0.30;;;;;;;;;;7394332;19;20144;-86
2023/07/05 01:57:08;;;;;;;0.40;0.40;;;;;;;;;;7394659;19;20169;-86
2023/07/05 01:59:45;;;;;;;0.35;0.35;;;;;;;;;;7397080;19;20129;-87
2023/07/05 02:02:13;;;;;;;0.65;0.65;;;;;;;;;;7397781;19;20486;-87
2023/07/05 02:04:42;;;;;;;0.40;0.40;;;;;;;;;;7398902;19;20531;-88
2023/07/05 02:07:08;;;;;;;0.40;0.40;;;;;;;;;;7390237;19;20633;-87
2023/07/05 02:09:37;;;;;;;0.35;0.35;;;;;;;;;;7399617;19;20138;-87
2023/07/05 02:12:07;;;;;;;0.45;0.45;;;;;;;;;;7397180;19;20594;-88
2023/07/05 02:14:38;;;;;;;0.35;0.35;;;;;;;;;;7398657;19;20132;-87
2023/07/05 02:17:14;;;;;;;0.30;0.30;;;;;;;;;;7394544;19;20168;-87
2023/07/05 02:19:41;;;;;;;0.40;0.40;;;;;;;;;;7398115;19;20152;-88
2023/07/05 02:22:07;;;;;;;0.40;0.40;;;;;;;;;;7398169;19;20141;-86
2023/07/05 02:24:34;;;;;;;1.85;0.65;;;;;;;;;;7395121;19;20473;-87
2023/07/05 02:27:01;;;;;;;0.38;0.38;;;;;;;;;;7395875;19;20145;-88
2023/07/05 02:29:31;;;;;;;1.00;0.68;;;;;;;;;;7397216;19;20144;-88
2023/07/05 02:31:58;;;;;;;0.55;0.55;;;;;;;;;;7398360;19;20129;-87
2023/07/05 02:34:25;;;;;;;0.30;0.30;;;;;;;;;;7396143;19;20129;-87
2023/07/05 02:36:52;;;;;;;0.30;0.30;;;;;;;;;;7396831;19;20149;-88
2023/07/05 02:39:18;;;;;;;0.43;0.43;;;;;;;;;;7399448;19;20197;-87
2023/07/05 02:41:45;;;;;;;0.35;0.35;;;;;;;;;;7396055;19;20200;-86
2023/07/05 02:44:12;;;;;;;0.30;0.30;;;;;;;;;;7406098;19;20133;-87
2023/07/05 02:46:38;;;;;;;0.63;0.63;;;;;;;;;;7401867;19;20152;-86
2023/07/05 02:49:05;;;;;;;0.60;0.60;;;;;;;;;;7405493;19;20507;-87
2023/07/05 02:51:32;;;;;;;0.40;0.40;;;;;;;;;;7404537;19;20144;-87
2023/07/05 02:53:58;;;;;;;0.60;0.60;;;;;;;;;;7403007;19;20597;-86
2023/07/05 02:56:25;;;;;;;0.52;0.52;;;;;;;;;;7402181;19;20162;-86
2023/07/05 02:58:52;;;;;;;0.80;0.80;;;;;;;;;;7401162;19;20477;-87
2023/07/05 03:01:19;;;;;;;0.35;0.35;;;;;;;;;;7403536;19;20133;-87
2023/07/05 03:03:45;;;;;;;0.40;0.40;;;;;;;;;;7400238;19;20133;-87
2023/07/05 03:06:12;;;;;;;0.45;0.45;;;;;;;;;;7402553;19;20145;-87
2023/07/05 03:08:38;;;;;;;0.38;0.38;;;;;;;;;;7404247;19;20575;-87
2023/07/05 03:11:05;;;;;;;0.75;0.75;;;;;;;;;;7404114;19;20136;-87
2023/07/05 03:13:33;;;;;;;0.35;0.35;;;;;;;;;;7400502;19;20133;-88
2023/07/05 03:16:00;;;;;;;0.40;0.40;;;;;;;;;;7397927;19;20744;-87
2023/07/05 03:18:29;;;;;;;0.52;0.52;;;;;;;;;;7401025;19;20144;-87
2023/07/05 03:20:56;;;;;;;0.45;0.45;;;;;;;;;;7401034;19;20141;-87
2023/07/05 03:23:23;;;;;;;0.50;0.50;;;;;;;;;;7399050;19;20140;-88
2023/07/05 03:26:00;;;;;;;0.40;0.40;;;;;;;;;;7398685;19;20235;-87
2023/07/05 03:28:31;;;;;;;0.60;0.60;;;;;;;;;;7399789;19;20133;-88
2023/07/05 03:31:18;;;;;;;0.30;0.30;;;;;;;;;;7396769;19;20136;-88
2023/07/05 03:33:45;;;;;;;0.38;0.38;;;;;;;;;;7397067;19;20195;-88
2023/07/05 03:36:14;;;;;;;0.52;0.52;;;;;;;;;;7398314;19;20243;-87
2023/07/05 03:38:41;;;;;;;0.30;0.30;;;;;;;;;;7400930;19;20165;-87
2023/07/05 03:41:14;;;;;;;0.40;0.40;;;;;;;;;;7400961;19;20121;-87
2023/07/05 03:43:43;;;;;;;0.75;0.75;;;;;;;;;;7397172;19;20129;-88
2023/07/05 03:46:11;;;;;;;0.30;0.30;;;;;;;;;;7397195;19;20591;-88
2023/07/05 03:48:39;;;;;;;0.50;0.50;;;;;;;;;;7400925;19;20154;-88
2023/07/05 03:51:06;;;;;;;0.30;0.30;;;;;;;;;;7398530;19;20137;-86
2023/07/05 03:53:33;;;;;;;0.40;0.40;;;;;;;;;;7398154;19;20445;-87
2023/07/05 03:56:01;;;;;;;0.43;0.43;;;;;;;;;;7397908;19;20159;-87
2023/07/05 03:58:29;;;;;;;0.30;0.30;;;;;;;;;;7399570;19;20606;-87
2023/07/05 04:01:17;;;;;;;0.30;0.30;;;;;;;;;;7399785;19;20129;-87
2023/07/05 04:03:46;;;;;;;0.75;0.75;;;;;;;;;;7397491;19;20137;-87
2023/07/05 04:06:14;;;;;;;0.55;0.55;;;;;;;;;;7398294;19;20152;-87
2023/07/05 04:08:41;;;;;;;0.47;0.47;;;;;;;;;;7396875;19;20140;-87
2023/07/05 04:11:08;;;;;;;0.88;0.88;;;;;;;;;;7400410;19;20189;-87
2023/07/05 04:13:35;;;;;;;0.30;0.30;;;;;;;;;;7397559;19;20924;-88
2023/07/05 04:16:05;;;;;;;0.50;0.50;;;;;;;;;;7401574;19;20744;-89
2023/07/05 04:18:32;;;;;;;0.40;0.40;;;;;;;;;;7399415;19;20125;-89
2023/07/05 04:20:59;;;;;;;0.60;0.60;;;;;;;;;;7397834;19;20473;-89
2023/07/05 04:23:26;;;;;;;0.40;0.40;;;;;;;;;;7395474;19;20554;-88
2023/07/05 04:26:00;;;;;;;0.30;0.30;;;;;;;;;;7395529;19;20170;-88
2023/07/05 04:28:28;;;;;;;0.30;0.30;;;;;;;;;;7394972;19;20649;-89
2023/07/05 04:30:54;;;;;;;0.40;0.40;;;;;;;;;;7394697;19;20129;-90
2023/07/05 04:33:21;;;;;;;0.70;0.70;;;;;;;;;;7395986;19;20201;-88
2023/07/05 04:35:50;;;;;;;0.50;0.50;;;;;;;;;;7394536;19;20164;-90
2023/07/05 04:38:17;;;;;;;0.30;0.30;;;;;;;;;;7395027;19;20193;-90
2023/07/05 04:40:43;;;;;;;0.40;0.40;;;;;;;;;;7395615;19;20141;-89
2023/07/05 04:43:10;;;;;;;0.68;0.40;;;;;;;;;;7395777;19;20137;-89
2023/07/05 04:45:36;;;;;;;0.30;0.30;;;;;;;;;;7396053;19;20153;-89
2023/07/05 04:48:03;;;;;;;0.30;0.30;;;;;;;;;;7399402;19;20129;-90
2023/07/05 04:50:30;;;;;;;0.52;0.52;;;;;;;;;;7394766;19;20141;-89
2023/07/05 04:52:57;;;;;;;0.60;0.60;;;;;;;;;;7396631;19;20140;-89
2023/07/05 04:55:23;;;;;;;0.30;0.30;;;;;;;;;;7395669;19;20168;-89
2023/07/05 04:57:50;;;;;;;0.40;0.40;;;;;;;;;;7394222;19;20144;-89
2023/07/05 05:00:24;;;;;;;0.40;0.40;;;;;;;;;;7391510;19;20173;-89
2023/07/05 05:03:07;;;;;;;0.40;0.40;;;;;;;;;;7390314;19;20148;-90
2023/07/05 05:05:34;;;;;;;0.55;0.45;;;;;;;;;;7393035;19;20149;-90
2023/07/05 05:08:01;;;;;;;0.30;0.30;;;;;;;;;;7393434;19;20181;-87
2023/07/05 05:10:27;;;;;;;0.50;0.50;;;;;;;;;;7391873;19;20129;-89
2023/07/05 05:12:54;;;;;;;0.30;0.30;;;;;;;;;;7393850;19;20141;-90
2023/07/05 05:15:21;;;;;;;0.55;0.45;;;;;;;;;;7391809;19;20540;-89
2023/07/05 05:17:48;;;;;;;0.43;0.43;;;;;;;;;;7392484;19;20618;-89
2023/07/05 05:20:15;;;;;;;0.40;0.40;;;;;;;;;;7389013;19;20204;-90
2023/07/05 05:22:44;;;;;;;0.47;0.47;;;;;;;;;;7387163;19;20160;-89
2023/07/05 05:25:10;;;;;;;0.57;0.57;;;;;;;;;;7389783;19;20549;-87
2023/07/05 05:27:37;;;;;;;0.47;0.47;;;;;;;;;;7392104;19;20508;-86
2023/07/05 05:30:04;;;;;;;0.63;0.63;;;;;;;;;;7392019;19;20160;-87
2023/07/05 05:32:31;;;;;;;0.32;0.32;;;;;;;;;;7392546;19;20182;-86
2023/07/05 05:34:58;;;;;;;1.48;0.55;;;;;;;;;;7391581;19;20153;-89
2023/07/05 05:37:25;;;;;;;0.43;0.43;;;;;;;;;;7395113;19;20636;-87
2023/07/05 05:39:51;;;;;;;0.30;0.30;;;;;;;;;;7392031;19;20137;-88
2023/07/05 05:42:18;;;;;;;0.30;0.30;;;;;;;;;;7391960;19;20141;-88
2023/07/05 05:44:44;;;;;;;0.52;0.52;;;;;;;;;;7389952;19;20145;-88
2023/07/05 05:47:11;;;;;;;0.40;0.40;;;;;;;;;;7390644;19;20156;-89
2023/07/05 05:49:38;;;;;;;0.70;0.70;;;;;;;;;;7390797;19;20133;-88
2023/07/05 05:52:04;;;;;;;0.50;0.50;;;;;;;;;;7394639;19;20144;-88
2023/07/05 05:54:33;;;;;;;0.38;0.38;;;;;;;;;;7395718;19;20137;-87
2023/07/05 05:56:59;;;;;;;0.68;0.68;;;;;;;;;;7394088;19;20189;-89
2023/07/05 05:59:26;;;;;;;0.40;0.40;;;;;;;;;;7393634;19;20141;-88
2023/07/05 06:01:53;;;;;;;0.35;0.35;;;;;;;;;;7391033;19;20504;-89
2023/07/05 06:04:20;;;;;;;0.50;0.50;;;;;;;;;;7398730;19;20143;-88
2023/07/05 06:06:46;;;;;;;0.85;0.50;;;;;;;;;;7393859;19;20188;-88
2023/07/05 06:09:14;;;;;;;0.32;0.32;;;;;;;;;;7391933;19;20133;-88
2023/07/05 06:11:41;;;;;;;0.32;0.32;;;;;;;;;;7393420;19;20144;-87
2023/07/05 06:14:08;;;;;;;0.60;0.60;;;;;;;;;;7391530;19;20148;-88
2023/07/05 06:16:35;;;;;;;0.50;0.50;;;;;;;;;;7389067;19;20168;-89
2023/07/05 06:19:02;;;;;;;0.60;0.60;;;;;;;;;;7390651;19;20137;-88
2023/07/05 06:21:29;;;;;;;0.40;0.40;;;;;;;;;;7393096;19;20140;-88
2023/07/05 06:23:55;;;;;;;0.43;0.43;;;;;;;;;;7389300;19;20132;-88
2023/07/05 06:26:22;;;;;;;0.50;0.50;;;;;;;;;;7397674;19;20163;-88
2023/07/05 06:28:49;;;;;;;0.73;0.70;;;;;;;;;;7398427;19;20147;-89
2023/07/05 06:31:17;;;;;;;0.60;0.60;;;;;;;;;;7395788;19;20137;-89
2023/07/05 06:33:45;;;;;;;0.32;0.32;;;;;;;;;;7395244;19;20148;-88
2023/07/05 06:36:11;;;;;;;0.30;0.30;;;;;;;;;;7398604;19;20161;-88
2023/07/05 06:38:38;;;;;;;0.50;0.50;;;;;;;;;;7398583;19;20147;-89
2023/07/05 06:41:05;;;;;;;2.40;0.77;;;;;;;;;;7396941;19;20620;-89
2023/07/05 06:43:32;;;;;;;1.00;1.00;;;;;;;;;;7394035;19;20208;-89
2023/07/05 06:45:58;;;;;;;0.30;0.30;;;;;;;;;;7397318;19;20141;-89
2023/07/05 06:48:25;;;;;;;0.30;0.30;;;;;;;;;;7400056;19;20161;-89
2023/07/05 06:50:53;;;;;;;0.35;0.35;;;;;;;;;;7395523;19;20632;-88
2023/07/05 06:53:21;;;;;;;0.45;0.45;;;;;;;;;;7397558;19;20489;-89
2023/07/05 06:56:09;;;;;;;0.40;0.40;;;;;;;;;;7397403;19;20157;-88
2023/07/05 06:58:36;;;;;;;0.45;0.45;;;;;;;;;;7399256;19;20177;-88
2023/07/05 07:01:04;;;;;;;0.47;0.47;;;;;;;;;;7395781;19;20133;-88
2023/07/05 07:03:30;;;;;;;0.55;0.55;;;;;;;;;;7398561;19;20196;-87
2023/07/05 07:05:58;;;;;;;0.98;0.93;;;;;;;;;;7398658;19;20145;-88
2023/07/05 07:08:30;;;;;;;0.70;0.70;;;;;;;;;;7399622;19;20133;-89
2023/07/05 07:11:01;;;;;;;0.47;0.47;;;;;;;;;;7400196;19;20161;-89
2023/07/05 07:13:28;;;;;;;0.52;0.52;;;;;;;;;;7397605;19;20196;-88
2023/07/05 07:16:03;;;;;;;0.60;0.60;;;;;;;;;;7394005;19;20183;-88
2023/07/05 07:18:30;;;;;;;0.40;0.40;;;;;;;;;;7396748;19;20136;-88
2023/07/05 07:20:59;;;;;;;0.30;0.30;;;;;;;;;;7395358;19;20181;-88
2023/07/05 07:23:26;;;;;;;0.47;0.47;;;;;;;;;;7392325;19;20145;-89
2023/07/05 07:26:00;;;;;;;0.32;0.32;;;;;;;;;;7398878;19;20159;-89
2023/07/05 07:28:27;;;;;;;0.40;0.40;;;;;;;;;;7399772;19;20161;-87
2023/07/05 07:30:53;;;;;;;1.48;0.65;;;;;;;;;;7403447;19;20143;-86
2023/07/05 07:33:20;;;;;;;0.40;0.40;;;;;;;;;;7402779;19;20137;-86
2023/07/05 07:35:48;;;;;;;0.35;0.35;;;;;;;;;;7403202;19;20156;-88
2023/07/05 07:38:16;;;;;;;0.90;0.90;;;;;;;;;;7400552;19;20129;-87
2023/07/05 07:40:43;;;;;;;0.47;0.47;;;;;;;;;;7402182;19;20630;-88
2023/07/05 07:43:09;;;;;;;0.90;0.90;;;;;;;;;;7405539;19;20129;-89
2023/07/05 07:45:36;;;;;;;0.40;0.40;;;;;;;;;;7401567;19;20151;-88
2023/07/05 07:48:03;;;;;;;0.43;0.43;;;;;;;;;;7404349;19;20169;-89
2023/07/05 07:50:31;;;;;;;0.93;0.77;;;;;;;;;;7402754;19;20609;-88
2023/07/05 07:52:58;;;;;;;0.47;0.47;;;;;;;;;;7403889;19;20137;-88
2023/07/05 07:55:24;;;;;;;0.40;0.40;;;;;;;;;;7399660;19;20157;-88
2023/07/05 07:57:51;;;;;;;0.65;0.65;;;;;;;;;;7401958;19;20159;-88
2023/07/05 08:00:18;;;;;;;0.40;0.40;;;;;;;;;;7400464;19;20143;-88
2023/07/05 08:02:45;;;;;;;0.60;0.60;;;;;;;;;;7399669;19;20137;-87
2023/07/05 08:05:16;;;;;;;1.10;1.10;;;;;;;;;;7397740;19;20153;-87
2023/07/05 08:07:43;;;;;;;0.88;0.88;;;;;;;;;;7400276;19;20141;-87
2023/07/05 08:10:10;;;;;;;0.65;0.65;;;;;;;;;;7401335;19;20136;-88
2023/07/05 08:12:36;;;;;;;0.30;0.30;;;;;;;;;;7400564;19;20125;-86
2023/07/05 08:15:04;;;;;;;0.45;0.45;;;;;;;;;;7396225;19;20599;-87
2023/07/05 08:17:31;;;;;;;0.55;0.55;;;;;;;;;;7397995;19;20125;-87
2023/07/05 08:19:58;;;;;;;0.40;0.40;;;;;;;;;;7402161;19;20137;-86
2023/07/05 08:22:24;;;;;;;0.70;0.70;;;;;;;;;;7399167;19;20121;-86
2023/07/05 08:24:51;;;;;;;0.30;0.30;;;;;;;;;;7396254;19;20155;-89
2023/07/05 08:27:18;;;;;;;0.30;0.30;;;;;;;;;;7397189;19;20137;-86
2023/07/05 08:29:45;;;;;;;0.40;0.40;;;;;;;;;;7394526;19;20125;-86
2023/07/05 08:32:11;;;;;;;0.30;0.30;;;;;;;;;;7396386;19;20503;-87
2023/07/05 08:34:38;;;;;;;0.30;0.30;;;;;;;;;;7396745;19;20165;-88
2023/07/05 08:37:05;;;;;;;0.30;0.30;;;;;;;;;;7395012;19;20539;-86
2023/07/05 08:39:31;;;;;;;1.35;0.70;;;;;;;;;;7396051;19;20190;-86
2023/07/05 08:42:31;;;;;;;0.40;0.40;;;;;;;;;;7398994;19;20601;-86
2023/07/05 08:45:10;;;;;;;0.40;0.40;;;;;;;;;;7400624;19;20602;-87
2023/07/05 08:47:52;;;;;;;0.40;0.40;;;;;;;;;;7402091;19;20208;-86
2023/07/05 08:50:26;;;;;;;0.40;0.40;;;;;;;;;;7400838;19;20144;-86
2023/07/05 08:53:05;;;;;;;0.38;0.38;;;;;;;;;;7400574;19;20133;-88
2023/07/05 08:55:52;;;;;;;0.40;0.40;;;;;;;;;;7404752;19;20156;-88
2023/07/05 08:58:22;;;;;;;0.40;0.40;;;;;;;;;;7394947;19;20145;-87
2023/07/05 09:01:00;;;;;;;0.30;0.30;;;;;;;;;;7394551;19;20614;-88
2023/07/05 09:03:31;;;;;;;0.50;0.50;;;;;;;;;;7394617;19;20144;-87
2023/07/05 09:06:24;;;;;;;0.30;0.30;;;;;;;;;;7393115;19;20140;-87
2023/07/05 09:09:06;;;;;;;0.30;0.30;;;;;;;;;;7394194;19;20173;-86
2023/07/05 09:11:48;;;;;;;0.35;0.35;;;;;;;;;;7394360;19;20546;-87
2023/07/05 09:14:40;;;;;;;0.85;0.70;;;;;;;;;;7395448;19;20640;-87
2023/07/05 09:17:20;;;;;;;0.35;0.35;;;;;;;;;;7397771;19;20164;-87
2023/07/05 09:19:53;;;;;;;0.38;0.38;;;;;;;;;;7398756;19;20201;-88
2023/07/05 09:22:24;;;;;;;0.60;0.60;;;;;;;;;;7401795;19;20133;-89
2023/07/05 09:24:51;;;;;;;0.50;0.50;;;;;;;;;;7395252;19;20140;-89
2023/07/05 09:27:32;;;;;;;0.40;0.40;;;;;;;;;;7399061;19;20159;-89
2023/07/05 09:30:14;;;;;;;0.30;0.30;;;;;;;;;;7397781;19;20139;-89
2023/07/05 09:32:43;;;;;;;0.40;0.40;;;;;;;;;;7396070;19;20128;-88
2023/07/05 09:35:19;;;;;;;0.57;0.57;;;;;;;;;;7394764;19;20149;-89
2023/07/05 09:37:53;;;;;;;0.30;0.30;;;;;;;;;;7396908;19;20137;-88
2023/07/05 09:40:23;;;;;;;0.32;0.32;;;;;;;;;;7394892;19;20141;-88
2023/07/05 09:42:59;;;;;;;0.30;0.30;;;;;;;;;;7394935;19;20605;-88
2023/07/05 09:45:26;;;;;;;0.50;0.50;;;;;;;;;;7394051;19;20137;-89
2023/07/05 09:47:59;;;;;;;0.40;0.40;;;;;;;;;;7395327;19;20137;-88
2023/07/05 09:50:26;;;;;;;0.32;0.32;;;;;;;;;;7395238;19;20144;-88
2023/07/05 09:52:58;;;;;;;0.52;0.52;;;;;;;;;;7396087;19;20209;-88
2023/07/05 09:55:28;;;;;;;0.60;0.60;;;;;;;;;;7394181;19;20149;-87
2023/07/05 09:57:57;;;;;;;0.38;0.38;;;;;;;;;;7396178;19;20144;-87
2023/07/05 10:00:35;;;;;;;0.40;0.40;;;;;;;;;;7398299;19;20212;-88
2023/07/05 10:03:09;;;;;;;0.40;0.40;;;;;;;;;;7400844;19;20129;-89
2023/07/05 10:05:36;;;;;;;0.60;0.60;;;;;;;;;;7423597;19;20164;-89
2023/07/05 10:08:04;;;;;;;0.40;0.40;;;;;;;;;;7421343;19;20125;-92
2023/07/05 10:10:41;;;;;;;0.50;0.50;;;;;;;;;;7422801;19;20165;-91
2023/07/05 10:13:20;;;;;;;0.38;0.38;;;;;;;;;;7424086;19;20129;-92
2023/07/05 10:15:49;;;;;;;0.35;0.35;;;;;;;;;;7423930;19;20137;-92
2023/07/05 10:18:31;;;;;;;0.50;0.50;;;;;;;;;;7424154;19;20139;-91
2023/07/05 10:21:02;;;;;;;0.35;0.35;;;;;;;;;;7424760;19;20133;-90
2023/07/05 10:23:35;;;;;;;0.40;0.40;;;;;;;;;;7420781;19;20171;-88
2023/07/05 10:26:42;;;;;;;0.63;0.63;;;;;;;;;;7392477;19;20716;-89
2023/07/05 10:29:10;;;;;;;0.35;0.35;;;;;;;;;;7390065;19;20156;-89
2023/07/05 10:31:37;;;;;;;0.43;0.43;;;;;;;;;;7392124;19;20157;-89
2023/07/05 10:34:17;;;;;;;0.30;0.30;;;;;;;;;;7388940;19;20170;-89
2023/07/05 10:36:48;;;;;;;0.57;0.45;;;;;;;;;;7388647;19;20180;-90
2023/07/05 10:39:26;;;;;;;0.98;0.63;;;;;;;;;;7388716;19;20149;-89
2023/07/05 10:41:58;;;;;;;0.50;0.50;;;;;;;;;;7389514;19;20204;-89
2023/07/05 10:44:31;;;;;;;0.50;0.50;;;;;;;;;;7391286;19;20133;-88
2023/07/05 10:46:58;;;;;;;0.50;0.50;;;;;;;;;;7392895;19;20152;-88
2023/07/05 10:49:27;;;;;;;0.68;0.63;;;;;;;;;;7396761;19;20215;-89
2023/07/05 10:52:06;;;;;;;0.35;0.35;;;;;;;;;;7399439;19;20141;-88
2023/07/05 10:54:42;;;;;;;0.52;0.52;;;;;;;;;;7393915;19;20140;-90
2023/07/05 10:58:05;;;;;;;;;;;;;;;;;;;;;
2023/07/05 11:01:44;;;;;;;0.40;0.40;;;;;;;;;;7393758;19;20158;-89
2023/07/05 11:04:50;;;;;;;1.13;0.50;;;;;;;;;;7399506;19;20145;-88
2023/07/05 11:07:18;;;;;;;0.60;0.60;;;;;;;;;;7401121;19;20192;-87
2023/07/05 11:09:45;;;;;;;0.40;0.35;;;;;;;;;;7407009;19;20484;-88
2023/07/05 11:12:23;;;;;;;0.65;0.65;;;;;;;;;;7401337;19;20141;-88
2023/07/05 11:14:51;;;;;;;0.73;0.73;;;;;;;;;;7398502;19;20137;-89
2023/07/05 11:17:31;;;;;;;0.30;0.30;;;;;;;;;;7400268;19;20155;-89
2023/07/05 11:19:59;;;;;;;0.50;0.50;;;;;;;;;;7400358;19;20133;-89
2023/07/05 11:22:40;;;;;;;0.30;0.30;;;;;;;;;;7398261;19;20144;-89
2023/07/05 11:25:12;;;;;;;0.70;0.70;;;;;;;;;;7396753;19;20179;-89
2023/07/05 11:27:57;;;;;;;1.52;0.82;;;;;;;;;;7399246;19;20205;-90
2023/07/05 11:30:37;;;;;;;0.57;0.57;;;;;;;;;;7396556;19;20145;-90
2023/07/05 11:33:06;;;;;;;0.40;0.40;;;;;;;;;;7395463;19;20148;-89
2023/07/05 11:35:48;;;;;;;0.65;0.57;;;;;;;;;;7396848;19;20647;-89
2023/07/05 11:38:37;;;;;;;0.30;0.30;;;;;;;;;;7400150;19;20407;-89
2023/07/05 11:41:08;;;;;;;0.35;0.35;;;;;;;;;;7395179;19;20133;-90
2023/07/05 11:43:44;;;;;;;0.68;0.68;;;;;;;;;;7393905;19;20180;-89
2023/07/05 11:46:32;;;;;;;0.40;0.40;;;;;;;;;;7394904;19;20161;-89
2023/07/05 11:49:19;;;;;;;0.65;0.50;;;;;;;;;;7397791;19;20205;-89
2023/07/05 11:51:58;;;;;;;0.30;0.30;;;;;;;;;;7397447;19;20162;-89
2023/07/05 11:54:32;;;;;;;0.35;0.35;;;;;;;;;;7398174;19;20133;-88
2023/07/05 11:57:01;;;;;;;0.68;0.68;;;;;;;;;;7398921;19;20170;-87
2023/07/05 11:59:29;;;;;;;0.40;0.40;;;;;;;;;;7397799;19;20196;-87
2023/07/05 12:01:57;;;;;;;0.55;0.55;;;;;;;;;;7398370;19;20181;-87
2023/07/05 12:04:24;;;;;;;0.40;0.40;;;;;;;;;;7397584;19;20144;-87
2023/07/05 12:06:51;;;;;;;0.38;0.38;;;;;;;;;;7397826;19;20692;-87
2023/07/05 12:09:23;;;;;;;0.63;0.63;;;;;;;;;;7398845;19;20149;-87
2023/07/05 12:11:56;;;;;;;0.30;0.30;;;;;;;;;;7399872;19;20154;-88
2023/07/05 12:14:23;;;;;;;0.40;0.40;;;;;;;;;;7401211;19;20137;-88
2023/07/05 12:16:52;;;;;;;0.52;0.52;;;;;;;;;;7394620;19;20153;-86
2023/07/05 12:19:26;;;;;;;1.48;1.02;;;;;;;;;;7397310;19;20212;-86
2023/07/05 12:21:57;;;;;;;0.50;0.50;;;;;;;;;;7401250;19;20223;-85
2023/07/05 12:24:24;;;;;;;0.57;0.57;;;;;;;;;;7399927;19;20177;-86
2023/07/05 12:26:51;;;;;;;0.47;0.47;;;;;;;;;;7394564;19;20151;-88
2023/07/05 12:29:23;;;;;;;0.50;0.50;;;;;;;;;;7390948;19;20136;-86
2023/07/05 12:32:14;;;;;;;1.95;0.88;;;;;;;;;;7394673;19;20140;-86
2023/07/05 12:34:41;;;;;;;0.93;0.93;;;;;;;;;;7397427;19;20129;-88
2023/07/05 12:37:30;;;;;;;0.55;0.55;;;;;;;;;;7395354;19;20523;-89
2023/07/05 12:40:34;;;;;;;0.40;0.40;;;;;;;;;;7391553;19;20149;-89
2023/07/05 12:43:05;;;;;;;0.32;0.32;;;;;;;;;;7395643;19;20148;-89
2023/07/05 12:45:37;;;;;;;0.38;0.38;;;;;;;;;;7394240;19;20160;-89
2023/07/05 12:48:12;;;;;;;0.70;0.70;;;;;;;;;;7399000;19;20205;-88
2023/07/05 12:50:40;;;;;;;0.50;0.50;;;;;;;;;;7401259;19;20133;-89
2023/07/05 12:53:40;;;;;;;0.35;0.35;;;;;;;;;;7397550;19;20144;-87
2023/07/05 12:56:09;;;;;;;0.40;0.40;;;;;;;;;;7396824;19;20160;-89
2023/07/05 12:58:38;;;;;;;0.50;0.50;;;;;;;;;;7399078;19;20817;-86
2023/07/05 13:01:05;;;;;;;0.50;0.50;;;;;;;;;;7403177;19;20154;-87
2023/07/05 13:03:32;;;;;;;0.40;0.40;;;;;;;;;;7397735;19;20204;-89
2023/07/05 13:06:01;;;;;;;0.50;0.50;;;;;;;;;;7398535;19;20176;-87
2023/07/05 13:08:29;;;;;;;0.47;0.47;;;;;;;;;;7399035;19;20661;-87
2023/07/05 13:10:56;;;;;;;1.10;0.85;;;;;;;;;;7395842;19;20377;-87
2023/07/05 13:13:27;;;;;;;0.68;0.68;;;;;;;;;;7397427;19;20137;-87
2023/07/05 13:15:54;;;;;;;0.40;0.40;;;;;;;;;;7403599;19;20168;-88
2023/07/05 13:18:25;;;;;;;0.52;0.52;;;;;;;;;;7406157;19;20137;-87
2023/07/05 13:21:12;;;;;;;0.30;0.30;;;;;;;;;;7407603;19;20129;-88
2023/07/05 13:23:47;;;;;;;0.60;0.60;;;;;;;;;;7405778;19;20630;-87
2023/07/05 13:26:18;;;;;;;0.55;0.55;;;;;;;;;;7405614;19;20545;-88
2023/07/05 13:28:45;;;;;;;1.75;0.95;;;;;;;;;;7402516;19;20204;-89
2023/07/05 13:31:18;;;;;;;0.30;0.30;;;;;;;;;;7401384;19;20593;-87
2023/07/05 13:33:45;;;;;;;2.08;0.50;;;;;;;;;;7404219;19;20137;-86
2023/07/05 13:36:12;;;;;;;0.55;0.55;;;;;;;;;;7401636;19;20231;-87
2023/07/05 13:38:39;;;;;;;0.45;0.45;;;;;;;;;;7403063;19;20129;-88
2023/07/05 13:41:33;;;;;;;1.10;0.52;;;;;;;;;;7404203;19;20145;-89
2023/07/05 13:44:46;;;;;;;0.30;0.30;;;;;;;;;;7398921;19;20132;-89
2023/07/05 13:47:20;;;;;;;0.30;0.30;;;;;;;;;;7400260;19;20175;-89
2023/07/05 13:49:51;;;;;;;0.80;0.80;;;;;;;;;;7398668;19;20137;-90
2023/07/05 13:52:19;;;;;;;1.30;0.68;;;;;;;;;;7404311;19;20181;-90
2023/07/05 13:54:48;;;;;;;0.93;0.47;;;;;;;;;;7403748;19;20200;-89
2023/07/05 13:57:38;;;;;;;0.50;0.50;;;;;;;;;;7401344;19;20145;-90
2023/07/05 14:00:19;;;;;;;0.30;0.30;;;;;;;;;;7396121;19;20149;-90
2023/07/05 14:02:46;;;;;;;0.63;0.63;;;;;;;;;;7404076;19;20254;-89
2023/07/05 14:05:13;;;;;;;3.30;0.57;;;;;;;;;;7407477;19;20169;-89
2023/07/05 14:07:39;;;;;;;0.80;0.80;;;;;;;;;;7398302;19;20208;-90
2023/07/05 14:10:07;;;;;;;0.43;0.43;;;;;;;;;;7406506;19;20209;-89
2023/07/05 14:12:33;;;;;;;0.35;0.35;;;;;;;;;;7403763;19;20142;-88
2023/07/05 14:15:41;;;;;;;0.68;0.68;;;;;;;;;;7394092;19;20189;-87
2023/07/05 14:18:17;;;;;;;0.38;0.38;;;;;;;;;;7394116;19;20144;-87
2023/07/05 14:20:47;;;;;;;0.40;0.40;;;;;;;;;;7398116;19;20132;-88
2023/07/05 14:23:16;;;;;;;0.30;0.30;;;;;;;;;;7396043;19;20490;-88
2023/07/05 14:25:48;;;;;;;0.57;0.57;;;;;;;;;;7394887;19;20164;-87
2023/07/05 14:28:16;;;;;;;0.40;0.40;;;;;;;;;;7397278;19;20141;-88
2023/07/05 14:30:55;;;;;;;0.30;0.30;;;;;;;;;;7395723;19;20149;-90
2023/07/05 14:33:49;;;;;;;1.45;0.47;;;;;;;;;;7395981;19;20228;-91
2023/07/05 14:36:22;;;;;;;0.47;0.47;;;;;;;;;;7392362;19;20526;-87
2023/07/05 14:38:49;;;;;;;0.45;0.45;;;;;;;;;;7397172;19;20136;-89
2023/07/05 14:41:23;;;;;;;0.50;0.50;;;;;;;;;;7404889;19;20136;-90
2023/07/05 14:43:51;;;;;;;0.30;0.30;;;;;;;;;;7406126;19;20132;-87
2023/07/05 14:46:28;;;;;;;0.35;0.35;;;;;;;;;;7398871;19;20161;-86
2023/07/05 14:49:00;;;;;;;0.98;0.93;;;;;;;;;;7401810;19;20127;-87
2023/07/05 14:51:27;;;;;;;0.45;0.45;;;;;;;;;;7397770;19;20594;-85
2023/07/05 14:53:56;;;;;;;0.40;0.40;;;;;;;;;;7400458;19;20136;-87
2023/07/05 14:56:23;;;;;;;2.05;0.60;;;;;;;;;;7404420;19;20625;-87
2023/07/05 14:58:50;;;;;;;0.45;0.45;;;;;;;;;;7407510;19;20483;-88
2023/07/05 15:01:17;;;;;;;1.05;0.95;;;;;;;;;;7406662;19;20158;-87
2023/07/05 15:03:46;;;;;;;0.65;0.65;;;;;;;;;;7404569;19;20161;-88
2023/07/05 15:06:14;;;;;;;0.55;0.55;;;;;;;;;;7404110;19;20145;-90
2023/07/05 15:08:42;;;;;;;0.68;0.68;;;;;;;;;;7400935;19;20125;-87
2023/07/05 15:11:09;;;;;;;0.52;0.43;;;;;;;;;;7399993;19;20148;-88